Time;durP1;ratioP1;P1;durP2;ratioP2;P2;SDS_P1;SDS_P2;PMS_P1;PMS_P2;Temp;Humidity;BMP_temperature;BMP_pressure;BME280_temperature;BME280_humidity;BME280_pressure;Samples;Min_cycle;Max_cycle;Signal;HPM_P1;HPM_P2
2022/07/25 00:00:55;;;;;;;12.2;9.2;;;;;;;20.61;75.95508;938.1904;;;;
2022/07/25 00:03:20;;;;;;;11.6;9.2;;;;;;;20.63;76.16992;938.1333;;;;
2022/07/25 00:05:48;;;;;;;11.6;9.5;;;;;;;20.67;76.10645;938.1411;;;;
2022/07/25 00:08:13;;;;;;;10.4;9.3;;;;;;;20.57;76.73047;938.1067;;;;
2022/07/25 00:10:41;;;;;;;11;9.6;;;;;;;20.56;76.8584;938.1036;;;;
2022/07/25 00:13:06;;;;;;;10;9;;;;;;;20.59;76.6416;938.0712;;;;
2022/07/25 00:15:33;;;;;;;10.8;8.9;;;;;;;20.62;76.41211;938.1213;;;;
2022/07/25 00:18:00;;;;;;;11;9.6;;;;;;;20.52;76.71094;938.0338;;;;
2022/07/25 00:20:25;;;;;;;12.1;9.3;;;;;;;20.5;76.98828;938.06;;;;
2022/07/25 00:22:52;;;;;;;11.2;9.4;;;;;;;20.42;77.18359;938.043;;;;
2022/07/25 00:25:17;;;;;;;12.6;10.2;;;;;;;20.14;78.37109;938.0517;;;;
2022/07/25 00:27:45;;;;;;;11.1;9.7;;;;;;;20.16;78.65527;938.0584;;;;
2022/07/25 00:30:10;;;;;;;14.4;9.6;;;;;;;20.16;78.52734;938.0259;;;;
2022/07/25 00:32:38;;;;;;;12.4;9.7;;;;;;;20.17;78.42383;938.0039;;;;
2022/07/25 00:35:03;;;;;;;10.8;9.2;;;;;;;20.21;78.38477;937.9956;;;;
2022/07/25 00:37:31;;;;;;;11.7;9.6;;;;;;;20.15;78.47852;937.9729;;;;
2022/07/25 00:39:56;;;;;;;12.5;9.5;;;;;;;20.05;79.05762;937.9805;;;;
2022/07/25 00:42:23;;;;;;;14.9;9.5;;;;;;;20;79.38477;937.9331;;;;
2022/07/25 00:44:46;;;;;;;13.5;9.6;;;;;;;20.09;78.93457;937.965;;;;
2022/07/25 00:47:13;;;;;;;11.2;9.4;;;;;;;20.05;79.21973;937.9224;;;;
2022/07/25 00:49:38;;;;;;;12.6;9.5;;;;;;;20.02;79.41211;937.9141;;;;
2022/07/25 00:52:04;;;;;;;10.7;9.4;;;;;;;19.92;79.87402;937.8755;;;;
2022/07/25 00:54:29;;;;;;;10.9;9.8;;;;;;;19.96;79.58887;937.8898;;;;
2022/07/25 00:56:55;;;;;;;11.3;9.4;;;;;;;20.01;79.23535;937.8965;;;;
2022/07/25 00:59:20;;;;;;;11;9.7;;;;;;;19.98;79.34668;937.8641;;;;
2022/07/25 01:01:47;;;;;;;11.4;9.9;;;;;;;19.85;80.04688;937.8508;;;;
2022/07/25 01:04:12;;;;;;;11.2;9.5;;;;;;;19.76;80.5791;937.8431;;;;
2022/07/25 01:06:38;;;;;;;11.2;10;;;;;;;19.89;79.79883;937.8414;;;;
2022/07/25 01:09:03;;;;;;;13.1;9.7;;;;;;;19.95;79.67871;937.8611;;;;
2022/07/25 01:11:29;;;;;;;11.2;9.6;;;;;;;19.86;80.04883;937.793;;;;
2022/07/25 01:13:54;;;;;;;12.4;9.1;;;;;;;19.81;80.42383;937.8062;;;;
2022/07/25 01:16:22;;;;;;;11.4;9.8;;;;;;;19.82;80.30859;937.7778;;;;
2022/07/25 01:18:48;;;;;;;12.8;9.5;;;;;;;19.76;80.49609;937.785;;;;
2022/07/25 01:21:13;;;;;;;11.1;9.6;;;;;;;19.63;81.19531;937.7247;;;;
2022/07/25 01:23:40;;;;;;;10.9;9.8;;;;;;;19.63;80.95117;937.7481;;;;
2022/07/25 01:26:05;;;;;;;10.4;9.3;;;;;;;19.65;80.76953;937.7659;;;;
2022/07/25 01:28:32;;;;;;;10.9;9.8;;;;;;;19.69;81.00879;937.702;;;;
2022/07/25 01:30:57;;;;;;;11.1;9.9;;;;;;;19.73;80.80566;937.7139;;;;
2022/07/25 01:33:22;;;;;;;10.4;9.3;;;;;;;19.75;80.69434;937.7067;;;;
2022/07/25 01:35:47;;;;;;;10.8;9.5;;;;;;;19.74;80.71387;937.7087;;;;
2022/07/25 01:38:13;;;;;;;11.5;9.3;;;;;;;19.78;80.50098;937.6841;;;;
2022/07/25 01:40:38;;;;;;;11.1;9.9;;;;;;;19.8;80.69043;937.6481;;;;
2022/07/25 01:43:04;;;;;;;11.3;9.4;;;;;;;19.87;80.16699;937.666;;;;
2022/07/25 01:45:29;;;;;;;11;9.6;;;;;;;19.82;80.15918;937.6462;;;;
2022/07/25 01:47:56;;;;;;;11.5;9.9;;;;;;;19.69;80.91602;937.5388;;;;
2022/07/25 01:50:21;;;;;;;10.8;9.7;;;;;;;19.56;81.625;937.5994;;;;
2022/07/25 01:52:47;;;;;;;10.5;9.5;;;;;;;19.51;81.82617;937.6479;;;;
2022/07/25 01:55:12;;;;;;;10.8;9.7;;;;;;;19.48;81.9834;937.5294;;;;
2022/07/25 01:57:41;;;;;;;11.7;9.5;;;;;;;19.55;81.57813;937.5624;;;;
2022/07/25 02:00:06;;;;;;;10.7;9.6;;;;;;;19.59;81.56152;937.5703;;;;
2022/07/25 02:02:36;;;;;;;11.2;9.4;;;;;;;19.67;81.08691;937.5022;;;;
2022/07/25 02:05:01;;;;;;;12.1;9.8;;;;;;;19.59;81.50391;937.5549;;;;
2022/07/25 02:07:28;;;;;;;10.8;9.3;;;;;;;19.53;81.64355;937.5392;;;;
2022/07/25 02:09:53;;;;;;;12.6;9.6;;;;;;;19.58;81.5;937.5196;;;;
2022/07/25 02:12:19;;;;;;;11.5;9.8;;;;;;;19.54;81.63379;937.5037;;;;
2022/07/25 02:14:44;;;;;;;10.8;9.7;;;;;;;19.43;82.24414;937.5369;;;;
2022/07/25 02:17:10;;;;;;;10.7;9.6;;;;;;;19.49;82.00977;937.4473;;;;
2022/07/25 02:19:35;;;;;;;10.6;9.5;;;;;;;19.49;81.81152;937.4844;;;;
2022/07/25 02:22:00;;;;;;;12.9;10.2;;;;;;;19.44;82.12793;937.4623;;;;
2022/07/25 02:24:25;;;;;;;11;9.8;;;;;;;19.29;82.77637;937.4757;;;;
2022/07/25 02:26:51;;;;;;;11.2;9.9;;;;;;;19.39;82.3877;937.4537;;;;
2022/07/25 02:29:17;;;;;;;11.4;10.2;;;;;;;19.41;82.2959;937.4654;;;;
2022/07/25 02:31:43;;;;;;;11.7;9.8;;;;;;;19.33;82.51563;937.423;;;;
2022/07/25 02:34:08;;;;;;;12.3;9.8;;;;;;;19.41;82.13477;937.4684;;;;
2022/07/25 02:36:35;;;;;;;11.5;9.7;;;;;;;19.43;82.14941;937.4456;;;;
2022/07/25 02:39:00;;;;;;;11.1;9.9;;;;;;;19.4;82.20313;937.4236;;;;
2022/07/25 02:41:27;;;;;;;13;10.2;;;;;;;19.26;83.02734;937.3876;;;;
2022/07/25 02:43:52;;;;;;;11.2;9.9;;;;;;;19.19;83.4668;937.4166;;;;
2022/07/25 02:46:19;;;;;;;11.2;9.5;;;;;;;19.21;83.39063;937.3328;;;;
2022/07/25 02:48:44;;;;;;;10.8;9.7;;;;;;;19.19;83.49121;937.3641;;;;
2022/07/25 02:51:10;;;;;;;11.9;10.6;;;;;;;19.2;83.50293;937.3518;;;;
2022/07/25 02:53:35;;;;;;;12.2;10.5;;;;;;;19.12;83.75781;937.3344;;;;
2022/07/25 02:56:02;;;;;;;15.6;10.7;;;;;;;19.26;83.00488;937.356;;;;
2022/07/25 02:58:27;;;;;;;10.7;9.3;;;;;;;19.23;83.11621;937.3972;;;;
2022/07/25 03:00:55;;;;;;;12;9.9;;;;;;;19.27;82.91309;937.3535;;;;
2022/07/25 03:03:20;;;;;;;11.4;10.2;;;;;;;19.23;83.09082;937.3246;;;;
2022/07/25 03:05:51;;;;;;;13;10.5;;;;;;;19.23;83.14941;937.3544;;;;
2022/07/25 03:08:16;;;;;;;12.5;10.1;;;;;;;19.16;83.70801;937.2986;;;;
2022/07/25 03:10:47;;;;;;;14.2;9.8;;;;;;;19.24;83.1875;937.3639;;;;
2022/07/25 03:13:17;;;;;;;10.4;9.4;;;;;;;19.07;84.09668;937.3953;;;;
2022/07/25 03:15:52;;;;;;;11.1;10;;;;;;;18.97;84.68262;937.3701;;;;
2022/07/25 03:18:19;;;;;;;13.1;10.5;;;;;;;18.96;84.93848;937.4113;;;;
2022/07/25 03:20:45;;;;;;;10.9;9.8;;;;;;;19.06;84.35254;937.3123;;;;
2022/07/25 03:23:10;;;;;;;11;9.9;;;;;;;19.09;84.4043;937.2939;;;;
2022/07/25 03:25:36;;;;;;;11.2;9.9;;;;;;;19.1;84.33594;937.3105;;;;
2022/07/25 03:28:05;;;;;;;11.2;10.1;;;;;;;19.03;84.46191;937.2283;;;;
2022/07/25 03:30:33;;;;;;;11.2;10.1;;;;;;;18.92;85.08105;937.3558;;;;
2022/07/25 03:33:00;;;;;;;12.8;10;;;;;;;;;;;;;
2022/07/25 03:35:26;;;;;;;13.3;10.7;;;;;;;;;;;;;
2022/07/25 03:37:51;;;;;;;11.4;10.2;;;;;;;;;;;;;
2022/07/25 03:40:16;;;;;;;11.5;10;;;;;;;;;;;;;
2022/07/25 03:42:42;;;;;;;10.6;9.5;;;;;;;;;;;;;
2022/07/25 03:45:07;;;;;;;12.5;10.9;;;;;;;;;;;;;
2022/07/25 03:47:35;;;;;;;11.4;10.2;;;;;;;;;;;;;
2022/07/25 03:50:00;;;;;;;10.9;9.8;;;;;;;;;;;;;
2022/07/25 03:52:27;;;;;;;12.1;10.8;;;;;;;;;;;;;
2022/07/25 03:54:52;;;;;;;11.9;10.6;;;;;;;;;;;;;
2022/07/25 03:57:17;;;;;;;11.3;9.9;;;;;;;;;;;;;
2022/07/25 03:59:42;;;;;;;14.5;10.7;;;;;;;;;;;;;
2022/07/25 04:02:34;;;;;;;11.5;10.3;;;;;;;18.83;85.87891;937.2968;;;;
2022/07/25 04:05:04;;;;;;;14;9.9;;;;;;;18.95;85.1582;937.3066;;;;
2022/07/25 04:07:30;;;;;;;11.8;10.1;;;;;;;18.86;85.69727;937.3035;;;;
2022/07/25 04:10:00;;;;;;;11.4;9.4;;;;;;;18.98;84.61621;937.3317;;;;
2022/07/25 04:12:24;;;;;;;12;10;;;;;;;19.06;84.26953;937.3472;;;;
2022/07/25 04:14:52;;;;;;;11.4;10.1;;;;;;;19.15;83.68066;937.3666;;;;
2022/07/25 04:17:17;;;;;;;11.8;10;;;;;;;19.22;83.32227;937.2957;;;;
2022/07/25 04:19:45;;;;;;;11.5;9.8;;;;;;;19.27;83.34375;937.3697;;;;
2022/07/25 04:22:10;;;;;;;11.7;9.8;;;;;;;19.43;82.52246;937.378;;;;
2022/07/25 04:24:38;;;;;;;10.8;9.7;;;;;;;19.41;82.55371;937.3279;;;;
2022/07/25 04:27:03;;;;;;;11.7;10.1;;;;;;;19.45;82.37402;937.2699;;;;
2022/07/25 04:29:31;;;;;;;11.7;9.4;;;;;;;19.49;82.28906;937.2471;;;;
2022/07/25 04:31:56;;;;;;;11.4;9.3;;;;;;;19.5;82.31445;937.2404;;;;
2022/07/25 04:34:25;;;;;;;11.2;9.6;;;;;;;19.55;82.03125;937.1563;;;;
2022/07/25 04:36:57;;;;;;;12.6;10.1;;;;;;;19.59;81.88867;937.1939;;;;
2022/07/25 04:39:22;;;;;;;11.6;9.2;;;;;;;19.63;81.71973;937.168;;;;
2022/07/25 04:41:52;;;;;;;10.4;9.3;;;;;;;19.73;81.00586;937.1563;;;;
2022/07/25 04:44:21;;;;;;;10.8;9.1;;;;;;;19.79;80.85254;937.2403;;;;
2022/07/25 04:46:49;;;;;;;10.5;9.4;;;;;;;19.66;82.05176;937.2481;;;;
2022/07/25 04:49:21;;;;;;;14.7;10.1;;;;;;;19.69;81.74219;937.2586;;;;
2022/07/25 04:51:53;;;;;;;11.3;10.1;;;;;;;19.76;81.61523;937.1539;;;;
2022/07/25 04:54:19;;;;;;;12;10.2;;;;;;;19.78;81.67871;937.2164;;;;
2022/07/25 04:56:50;;;;;;;12.7;10.3;;;;;;;19.74;81.84473;937.2313;;;;
2022/07/25 04:59:19;;;;;;;15.1;12.4;;;;;;;19.74;82.03125;937.1771;;;;
2022/07/25 05:01:44;;;;;;;15.4;12.1;;;;;;;19.79;82.08691;937.2195;;;;
2022/07/25 05:04:12;;;;;;;16.3;12.2;;;;;;;19.84;81.89844;937.1424;;;;
2022/07/25 05:06:38;;;;;;;15.2;11.2;;;;;;;19.84;81.70215;937.067;;;;
2022/07/25 05:09:03;;;;;;;13.2;10.6;;;;;;;19.77;82.33008;937.0897;;;;
2022/07/25 05:11:28;;;;;;;12.8;10.7;;;;;;;19.85;81.95996;937.0514;;;;
2022/07/25 05:13:58;;;;;;;13.4;10.8;;;;;;;19.87;81.98828;937.147;;;;
2022/07/25 05:16:26;;;;;;;18.5;11.3;;;;;;;19.86;81.9248;937.1079;;;;
2022/07/25 05:18:57;;;;;;;13.7;10.5;;;;;;;19.85;82.12305;937.1016;;;;
2022/07/25 05:21:26;;;;;;;12.1;10.3;;;;;;;20;82.10547;937.0681;;;;
2022/07/25 05:23:51;;;;;;;12;9.7;;;;;;;20.93;79.03906;937.0884;;;;
2022/07/25 05:26:18;;;;;;;10.4;9.3;;;;;;;22.46;72.41113;937.0909;;;;
2022/07/25 05:28:43;;;;;;;10.4;9.3;;;;;;;23.64;66.98242;937.0672;;;;
2022/07/25 05:31:11;;;;;;;9.3;8.3;;;;;;;24.29;63.61523;936.9991;;;;
2022/07/25 05:33:39;;;;;;;9.1;8.2;;;;;;;25.16;60.9668;937.1091;;;;
2022/07/25 05:36:07;;;;;;;8.8;7.9;;;;;;;26.34;58.2627;936.9814;;;;
2022/07/25 05:38:32;;;;;;;8.5;7.4;;;;;;;27.4;54.58008;936.9955;;;;
2022/07/25 05:40:59;;;;;;;9.3;7.4;;;;;;;27.64;52.87695;936.9686;;;;
2022/07/25 05:43:25;;;;;;;9.4;7.6;;;;;;;28.3;51.18457;936.9696;;;;
2022/07/25 05:45:55;;;;;;;9.4;7.7;;;;;;;28.8;49.72949;936.9751;;;;
2022/07/25 05:48:26;;;;;;;7.5;6.8;;;;;;;29.61;47.42285;936.8873;;;;
2022/07/25 05:50:57;;;;;;;7.8;6.9;;;;;;;29.66;46.97461;936.8859;;;;
2022/07/25 05:53:25;;;;;;;7.7;6.9;;;;;;;29.38;46.69531;936.8586;;;;
2022/07/25 05:55:51;;;;;;;7.6;6.8;;;;;;;30.11;46.27051;936.8468;;;;
2022/07/25 05:58:19;;;;;;;8.8;7.1;;;;;;;30.52;44.11426;936.9078;;;;
2022/07/25 06:00:51;;;;;;;7.9;6.6;;;;;;;29.92;45.43945;936.8929;;;;
2022/07/25 06:03:20;;;;;;;7.7;6.2;;;;;;;30.45;44.58496;936.8345;;;;
2022/07/25 06:05:46;;;;;;;7.8;6.3;;;;;;;30.69;44.33301;936.7397;;;;
2022/07/25 06:08:14;;;;;;;7.8;6.8;;;;;;;31.71;42.5166;936.7898;;;;
2022/07/25 06:10:39;;;;;;;7.2;6.4;;;;;;;32.29;41.15625;936.7874;;;;
2022/07/25 06:13:08;;;;;;;7.6;6.8;;;;;;;32.69;40.1123;936.7927;;;;
2022/07/25 06:15:38;;;;;;;6.8;6.2;;;;;;;33.17;39.34863;936.7667;;;;
2022/07/25 06:18:03;;;;;;;7.1;6.4;;;;;;;33.57;38.21777;936.7408;;;;
2022/07/25 06:20:31;;;;;;;7.3;6.6;;;;;;;34.22;38.77832;936.7717;;;;
2022/07/25 06:22:56;;;;;;;7.5;6.8;;;;;;;34.57;36.03613;936.7766;;;;
2022/07/25 06:25:23;;;;;;;9.7;7.2;;;;;;;34;37.14648;936.7318;;;;
2022/07/25 06:27:48;;;;;;;7.9;7.1;;;;;;;34.77;35.97949;936.7883;;;;
2022/07/25 06:30:16;;;;;;;7.1;6.5;;;;;;;34.22;37.15234;936.7651;;;;
2022/07/25 06:32:41;;;;;;;8.1;7.3;;;;;;;34.48;36.48633;936.7734;;;;
2022/07/25 06:35:06;;;;;;;8.3;7.4;;;;;;;34.77;37.62012;936.7303;;;;
2022/07/25 06:37:34;;;;;;;9;7.3;;;;;;;35.56;34.7002;936.7134;;;;
2022/07/25 06:39:59;;;;;;;7.8;7.1;;;;;;;33.64;37.23633;936.6658;;;;
2022/07/25 06:42:30;;;;;;;7.6;6.9;;;;;;;34.42;36.49316;936.6312;;;;
2022/07/25 07:34:51;;;;;;;8.8;7.3;;;;;;;41.51;25.71875;936.2078;;;;
2022/07/25 07:38:32;;;;;;;7.6;6.9;;;;;;;40.89;27.45605;936.151;;;;
2022/07/25 07:40:57;;;;;;;7.5;6.8;;;;;;;40.91;27.32227;936.1498;;;;
2022/07/25 07:43:30;;;;;;;7.6;6.9;;;;;;;39.92;28.37402;936.0916;;;;
2022/07/25 07:45:55;;;;;;;7.6;7;;;;;;;40.79;26.9248;936.0773;;;;
2022/07/25 07:48:23;;;;;;;6.8;6.3;;;;;;;39.75;28.97266;936.0457;;;;
2022/07/25 07:50:49;;;;;;;7.5;6.7;;;;;;;40.37;27.46191;936.1074;;;;
2022/07/25 07:53:15;;;;;;;7.7;7;;;;;;;41.61;26.05469;936.0728;;;;
2022/07/25 07:55:47;;;;;;;7.3;6.6;;;;;;;41.73;26.74609;936.025;;;;
2022/07/25 07:58:06;;;;;;;6.9;6.2;;;;;;;40.98;25.82324;936.0142;;;;
2022/07/25 08:00:34;;;;;;;7.2;6.6;;;;;;;40.57;25.80078;936.0089;;;;
2022/07/25 08:02:56;;;;;;;6.8;6.1;;;;;;;41.8;25.82031;935.9971;;;;
2022/07/25 08:05:26;;;;;;;7.1;6.4;;;;;;;40.67;26.13672;935.9436;;;;
2022/07/25 08:07:55;;;;;;;7.6;6.8;;;;;;;40.63;27.29297;935.9196;;;;
2022/07/25 08:10:28;;;;;;;7;6.4;;;;;;;39.77;27.88965;935.9185;;;;
2022/07/25 08:12:53;;;;;;;8.2;6.6;;;;;;;39.48;27.45703;935.9049;;;;
2022/07/25 08:15:21;;;;;;;6.8;6.2;;;;;;;40.29;26.26172;935.8359;;;;
2022/07/25 08:17:49;;;;;;;6.7;6;;;;;;;41.73;25.76758;935.8772;;;;
2022/07/25 08:20:21;;;;;;;7.6;6.9;;;;;;;40.14;27.63086;935.8694;;;;
2022/07/25 08:22:50;;;;;;;7;6.3;;;;;;;41.14;26.38281;935.8381;;;;
2022/07/25 08:25:23;;;;;;;6.8;6.2;;;;;;;40.88;26.68555;935.8275;;;;
2022/07/25 08:27:54;;;;;;;6.9;6.3;;;;;;;41.91;25.11621;935.8269;;;;
2022/07/25 08:30:24;;;;;;;6.6;6.1;;;;;;;42.86;24.68945;935.8298;;;;
2022/07/25 08:32:49;;;;;;;7;6.4;;;;;;;42.23;24.5459;935.7881;;;;
2022/07/25 08:35:15;;;;;;;7.2;6.6;;;;;;;42.9;25.30469;935.7687;;;;
2022/07/25 08:37:40;;;;;;;6.8;6.3;;;;;;;43.16;24.61914;935.7756;;;;
2022/07/25 08:40:10;;;;;;;6.8;6.2;;;;;;;43.99;24.60156;935.7101;;;;
2022/07/25 08:42:35;;;;;;;7;6.4;;;;;;;44.59;22.52637;935.7659;;;;
2022/07/25 08:45:05;;;;;;;6.8;6.3;;;;;;;44.3;22.10742;935.6493;;;;
2022/07/25 08:47:30;;;;;;;6.9;6.4;;;;;;;43.77;22.67188;935.6598;;;;
2022/07/25 08:50:00;;;;;;;6.7;6.1;;;;;;;41.75;24.82617;935.6016;;;;
2022/07/25 08:52:28;;;;;;;6.8;6.3;;;;;;;42.27;25.18457;935.6574;;;;
2022/07/25 08:54:53;;;;;;;6.9;6.3;;;;;;;41.21;27.87793;935.5914;;;;
2022/07/25 08:57:18;;;;;;;6.7;6.1;;;;;;;42.16;25.82813;935.5639;;;;
2022/07/25 08:59:47;;;;;;;6.8;6.3;;;;;;;41.97;26.18457;935.5447;;;;
2022/07/25 09:02:14;;;;;;;7.2;6.5;;;;;;;42.37;25.34961;935.5229;;;;
2022/07/25 09:04:39;;;;;;;7;6.4;;;;;;;42.1;25.39648;935.4993;;;;
2022/07/25 09:07:06;;;;;;;7;6.3;;;;;;;43.28;22.88086;935.4852;;;;
2022/07/25 09:09:31;;;;;;;6.7;6.2;;;;;;;43.78;22.9668;935.4437;;;;
2022/07/25 09:11:56;;;;;;;6.8;6.3;;;;;;;41.88;24.60059;935.4227;;;;
2022/07/25 09:14:24;;;;;;;6.8;6.3;;;;;;;42.69;25.30469;935.4156;;;;
2022/07/25 09:16:55;;;;;;;6.3;5.7;;;;;;;42.86;24.1123;935.4031;;;;
2022/07/25 09:19:22;;;;;;;6.4;5.8;;;;;;;41.47;25.58203;935.2983;;;;
2022/07/25 09:21:50;;;;;;;6.5;5.9;;;;;;;42.57;25.33594;935.3459;;;;
2022/07/25 09:24:16;;;;;;;6.4;5.9;;;;;;;42.51;25.01465;935.2762;;;;
2022/07/25 09:26:41;;;;;;;6.5;5.9;;;;;;;41.85;24.5127;935.1666;;;;
2022/07/25 09:29:06;;;;;;;6.6;5.8;;;;;;;40.81;27.59766;935.1591;;;;
2022/07/25 09:31:39;;;;;;;6.7;6.1;;;;;;;41.13;25.69727;935.1495;;;;
2022/07/25 09:34:06;;;;;;;5.8;5.3;;;;;;;39.5;30.9668;935.1942;;;;
2022/07/25 09:36:26;;;;;;;6.2;5.4;;;;;;;40.39;24.72852;935.2054;;;;
2022/07/25 09:38:51;;;;;;;6.1;5.5;;;;;;;40.69;26.68652;935.1558;;;;
2022/07/25 09:41:16;;;;;;;7.3;5.7;;;;;;;39.77;28.72949;935.1378;;;;
2022/07/25 09:43:44;;;;;;;6.2;5.5;;;;;;;38.95;30.5166;935.1294;;;;
2022/07/25 09:46:09;;;;;;;5.1;4.7;;;;;;;39.97;28.13379;935.1152;;;;
2022/07/25 09:48:38;;;;;;;5.9;5.3;;;;;;;39.51;27.45898;935.1042;;;;
2022/07/25 09:51:03;;;;;;;5.1;4.6;;;;;;;40.71;25.97949;935.1434;;;;
2022/07/25 09:53:28;;;;;;;5.7;5.2;;;;;;;40.7;24.5625;935.0811;;;;
2022/07/25 09:55:56;;;;;;;5.3;4.8;;;;;;;41.28;25.46094;935.1362;;;;
2022/07/25 09:58:20;;;;;;;6.7;4.6;;;;;;;41.99;25.99023;935.164;;;;
2022/07/25 10:00:47;;;;;;;5.5;5;;;;;;;41.66;25.89844;935.09;;;;
2022/07/25 10:03:12;;;;;;;5.4;5;;;;;;;41.88;24.72266;935.0597;;;;
2022/07/25 10:05:37;;;;;;;5.6;5.1;;;;;;;41.46;25.52051;935.0008;;;;
2022/07/25 10:08:04;;;;;;;5.5;5;;;;;;;41.57;26.61426;935.0539;;;;
2022/07/25 10:10:29;;;;;;;5.3;4.9;;;;;;;42.25;24.28906;935.1066;;;;
2022/07/25 10:13:01;;;;;;;5.6;5;;;;;;;42.1;23.25195;935.0742;;;;
2022/07/25 10:15:53;;;;;;;5.5;4.3;;;;;;;42.34;22.2959;935.0225;;;;
2022/07/25 14:32:45;;;;;;;5.1;4.6;;;;;;;34.95;32.41113;933.0631;;;;
2022/07/25 14:35:15;;;;;;;4.7;4.3;;;;;;;34.8;32.28027;933.0003;;;;
2022/07/25 14:37:46;;;;;;;4.7;4.3;;;;;;;34.55;33.46777;933.0122;;;;
2022/07/25 14:40:14;;;;;;;4.7;4.3;;;;;;;34.44;32.82031;933.0261;;;;
2022/07/25 14:42:40;;;;;;;5;4.5;;;;;;;34.49;32.47461;932.9297;;;;
2022/07/25 14:45:06;;;;;;;4.6;4.2;;;;;;;34.43;32.54297;932.9637;;;;
2022/07/25 14:47:52;;;;;;;4.9;4.2;;;;;;;34.63;31.20703;932.9644;;;;
2022/07/25 14:50:16;;;;;;;7.3;4.9;;;;;;;34.7;34.28613;932.9348;;;;
2022/07/25 14:52:42;;;;;;;5.1;4.6;;;;;;;34.63;29.9541;932.9053;;;;
2022/07/25 14:55:13;;;;;;;5;4.5;;;;;;;34.25;32.43359;932.9297;;;;
2022/07/25 14:57:43;;;;;;;7.6;4.9;;;;;;;34.35;32.93457;932.8599;;;;
2022/07/25 15:00:17;;;;;;;5.7;4.9;;;;;;;34.43;31.27734;932.8848;;;;
2022/07/25 15:02:48;;;;;;;7.4;4.6;;;;;;;34.55;31.40625;932.8594;;;;
2022/07/25 15:05:14;;;;;;;7.3;5;;;;;;;34.5;32.60742;932.8409;;;;
2022/07/25 15:07:40;;;;;;;5.3;4.8;;;;;;;34.56;31.35938;932.8702;;;;
2022/07/25 15:10:14;;;;;;;5.3;4.6;;;;;;;34.63;31.93066;932.7808;;;;
2022/07/25 15:12:46;;;;;;;4.9;4.4;;;;;;;34.59;32.13184;932.8423;;;;
2022/07/25 15:15:16;;;;;;;5.3;4.8;;;;;;;34.69;31.93359;932.735;;;;
2022/07/25 15:17:41;;;;;;;10.1;5.3;;;;;;;34.72;32.97363;932.7173;;;;
2022/07/25 15:20:06;;;;;;;5.4;4.9;;;;;;;34.75;32.28809;932.6884;;;;
2022/07/25 15:22:38;;;;;;;6.3;4.8;;;;;;;34.55;33.12891;932.6901;;;;
2022/07/25 15:25:08;;;;;;;6.3;5.1;;;;;;;34.53;33.15234;932.5834;;;;
2022/07/25 15:27:41;;;;;;;5.1;4.6;;;;;;;34.54;34.17773;932.6454;;;;
2022/07/25 15:30:06;;;;;;;5.4;4.7;;;;;;;34.63;32.8584;932.6125;;;;
2022/07/25 15:32:31;;;;;;;7.6;4.7;;;;;;;34.73;31.68457;932.6375;;;;
2022/07/25 15:35:01;;;;;;;6.2;4.7;;;;;;;34.55;32.67188;932.601;;;;
2022/07/25 15:37:26;;;;;;;5.9;5.3;;;;;;;34.37;34.00781;932.617;;;;
2022/07/25 15:39:55;;;;;;;6.2;4.7;;;;;;;34.31;33.91895;932.633;;;;
2022/07/25 15:42:25;;;;;;;5.4;4.9;;;;;;;34.3;34.4248;932.6063;;;;
2022/07/25 15:44:51;;;;;;;5.7;5.1;;;;;;;34.17;33.25879;932.5919;;;;
2022/07/25 15:47:15;;;;;;;5.1;4.6;;;;;;;34.12;33.53223;932.5898;;;;
2022/07/25 15:49:43;;;;;;;5.4;4.9;;;;;;;34.11;33.72363;932.5296;;;;
2022/07/25 15:52:08;;;;;;;6;5;;;;;;;34.22;33.17773;932.5881;;;;
2022/07/25 15:54:35;;;;;;;6.1;5.2;;;;;;;34.15;33.62988;932.608;;;;
2022/07/25 15:57:01;;;;;;;7.4;5.1;;;;;;;34.17;34.29492;932.5792;;;;
2022/07/25 15:59:30;;;;;;;6.1;5.4;;;;;;;34.14;34.02734;932.555;;;;
2022/07/25 16:01:55;;;;;;;6.4;5.4;;;;;;;34.12;33.13477;932.522;;;;
2022/07/25 16:04:22;;;;;;;6.4;5.6;;;;;;;34.09;33.28906;932.5647;;;;
2022/07/25 16:06:47;;;;;;;6.3;5.4;;;;;;;34.09;34.36035;932.6351;;;;
2022/07/25 16:09:18;;;;;;;6.1;5.5;;;;;;;34.1;33.60254;932.5934;;;;
2022/07/25 16:11:42;;;;;;;6.1;5.5;;;;;;;34.12;33.09863;932.5342;;;;
2022/07/25 16:14:11;;;;;;;6.3;5.4;;;;;;;33.9;34.29785;932.49;;;;
2022/07/25 16:16:48;;;;;;;6;5.4;;;;;;;33.77;34.7334;932.4474;;;;
2022/07/25 16:19:17;;;;;;;6;5.2;;;;;;;33.62;34.80566;932.5028;;;;
2022/07/25 16:21:42;;;;;;;5.7;5.2;;;;;;;33.69;34.33105;932.5051;;;;
2022/07/25 16:24:12;;;;;;;5.8;5.3;;;;;;;33.76;34.25195;932.4512;;;;
2022/07/25 16:26:37;;;;;;;6.4;5.8;;;;;;;33.67;35.26758;932.4475;;;;
2022/07/25 16:29:05;;;;;;;6.3;5.7;;;;;;;33.7;34.87207;932.3752;;;;
2022/07/25 16:31:34;;;;;;;6.2;5.6;;;;;;;33.68;35.60547;932.3986;;;;
2022/07/25 16:33:59;;;;;;;6.2;5.6;;;;;;;33.3;36.54785;932.3729;;;;
2022/07/25 16:36:28;;;;;;;6.1;5.5;;;;;;;33.24;36.14648;932.397;;;;
2022/07/25 16:38:59;;;;;;;6;5.3;;;;;;;33.25;35.91992;932.3928;;;;
2022/07/25 16:41:24;;;;;;;6.2;5.6;;;;;;;33.08;36.58984;932.3781;;;;
2022/07/25 16:43:52;;;;;;;6.1;5.3;;;;;;;32.74;37.00781;932.3669;;;;
2022/07/25 16:46:17;;;;;;;5.8;5.2;;;;;;;32.45;38.66309;932.413;;;;
2022/07/25 16:48:42;;;;;;;6.3;5.6;;;;;;;32.43;38.19434;932.3858;;;;
2022/07/25 16:51:14;;;;;;;6.2;5.6;;;;;;;32.39;39.28223;932.3184;;;;
2022/07/25 16:53:42;;;;;;;6.7;5.7;;;;;;;32.32;37.57227;932.3547;;;;
2022/07/25 16:56:08;;;;;;;6.3;5.2;;;;;;;32.17;38.52051;932.4281;;;;
2022/07/25 16:58:33;;;;;;;6;5.5;;;;;;;31.97;37.3877;932.4684;;;;
2022/07/25 17:01:02;;;;;;;7.2;5.3;;;;;;;32.04;38.2334;932.5008;;;;
2022/07/25 17:03:27;;;;;;;5.9;5.3;;;;;;;32.21;37.62402;932.5449;;;;
2022/07/25 17:05:55;;;;;;;6;5.4;;;;;;;31.95;38.90918;932.4988;;;;
2022/07/25 17:08:20;;;;;;;6.9;5.7;;;;;;;31.63;40.24609;932.4244;;;;
2022/07/25 17:10:47;;;;;;;6.4;5.4;;;;;;;31.53;40.57227;932.4811;;;;
2022/07/25 17:13:12;;;;;;;7.9;5.8;;;;;;;31.65;38.79883;932.4691;;;;
2022/07/25 17:15:44;;;;;;;7.1;5.8;;;;;;;31.65;39.70898;932.4998;;;;
2022/07/25 17:18:12;;;;;;;6.4;5.3;;;;;;;31.74;39.75293;932.48;;;;
2022/07/25 17:20:43;;;;;;;7;5.6;;;;;;;31.83;39.85645;932.4636;;;;
2022/07/25 17:23:14;;;;;;;6.9;5.8;;;;;;;31.71;39.72656;932.3192;;;;
2022/07/25 17:25:42;;;;;;;6.7;5.5;;;;;;;31.72;40.09863;932.3279;;;;
2022/07/25 17:28:07;;;;;;;6.4;5.3;;;;;;;31.65;40.05566;932.2996;;;;
2022/07/25 17:30:35;;;;;;;9.4;5.6;;;;;;;31.62;39.91016;932.2787;;;;
2022/07/25 17:33:00;;;;;;;6.3;5.7;;;;;;;31.64;39.81543;932.2734;;;;
2022/07/25 17:35:29;;;;;;;5.8;5.3;;;;;;;31.65;38.69043;932.3167;;;;
2022/07/25 17:37:54;;;;;;;8;5.7;;;;;;;31.58;38.98438;932.2897;;;;
2022/07/25 17:40:21;;;;;;;6.8;5.6;;;;;;;31.59;39.88379;932.2505;;;;
2022/07/25 17:42:47;;;;;;;5.8;5.2;;;;;;;31.35;38.58203;932.3086;;;;
2022/07/25 17:45:17;;;;;;;5.8;5.2;;;;;;;31.33;36.61816;932.4152;;;;
2022/07/25 17:47:42;;;;;;;6.9;5.4;;;;;;;31.32;36.4375;932.5382;;;;
2022/07/25 17:50:15;;;;;;;5.7;5;;;;;;;31.51;36.77637;932.6809;;;;
2022/07/25 17:52:43;;;;;;;9;6;;;;;;;31.57;37.94238;932.8077;;;;
2022/07/25 17:55:08;;;;;;;7.3;5.8;;;;;;;31.37;39.37305;932.9308;;;;
2022/07/25 17:57:36;;;;;;;6.6;5.9;;;;;;;31.48;39.53906;933.0406;;;;
2022/07/25 18:00:02;;;;;;;6.2;5.6;;;;;;;31.57;39.55762;933.0264;;;;
2022/07/25 18:02:31;;;;;;;6.9;6;;;;;;;31.47;39.99316;933.0585;;;;
2022/07/25 18:04:56;;;;;;;6.9;5.6;;;;;;;31.63;39.93457;933.0589;;;;
2022/07/25 18:07:23;;;;;;;6.3;5.7;;;;;;;31.66;39.81738;933.0407;;;;
2022/07/25 18:09:48;;;;;;;7;6.2;;;;;;;31.48;40.56738;933.1036;;;;
2022/07/25 18:12:13;;;;;;;7;5.4;;;;;;;31.53;40.27344;933.155;;;;
2022/07/25 18:14:41;;;;;;;7.8;6.1;;;;;;;31.43;40.15625;933.1501;;;;
2022/07/25 18:17:07;;;;;;;6.9;5.7;;;;;;;31.4;40.67969;933.1197;;;;
2022/07/25 18:19:32;;;;;;;7.1;6;;;;;;;31.24;41.43164;933.1629;;;;
2022/07/25 18:21:59;;;;;;;6.4;5.7;;;;;;;31.03;41.68848;933.1994;;;;
2022/07/25 18:24:24;;;;;;;6.6;5.5;;;;;;;31.05;41.41504;933.2683;;;;
2022/07/25 18:26:49;;;;;;;7.4;5.5;;;;;;;31.14;42.04492;933.2452;;;;
2022/07/25 18:29:16;;;;;;;6.9;6;;;;;;;31.17;43.41113;933.236;;;;
2022/07/25 18:31:41;;;;;;;7.2;5.9;;;;;;;30.98;44.11035;933.2745;;;;
2022/07/25 18:34:08;;;;;;;12.7;6.9;;;;;;;30.67;44.75;933.215;;;;
2022/07/25 18:36:34;;;;;;;10.5;7.3;;;;;;;30.58;44.80078;933.1794;;;;
2022/07/25 18:39:00;;;;;;;11;7.3;;;;;;;30.62;44.06445;933.211;;;;
2022/07/25 18:41:25;;;;;;;10.1;6.5;;;;;;;30.63;43.15723;933.2201;;;;
2022/07/25 18:43:56;;;;;;;7.6;5.9;;;;;;;30.55;43.65137;933.2507;;;;
2022/07/25 18:46:20;;;;;;;7.8;6.7;;;;;;;30.57;45.83887;933.2961;;;;
2022/07/25 18:48:48;;;;;;;7.8;6.3;;;;;;;30.52;44.73535;933.4048;;;;
2022/07/25 18:51:13;;;;;;;6.7;6;;;;;;;30.48;43.30957;933.4238;;;;
2022/07/25 18:53:38;;;;;;;9.5;5.9;;;;;;;30.52;43.38477;933.4338;;;;
2022/07/25 18:56:06;;;;;;;6.7;5.6;;;;;;;30.57;43.22266;933.3642;;;;
2022/07/25 18:58:32;;;;;;;8.6;6;;;;;;;30.58;43.25977;933.3;;;;
2022/07/25 19:01:02;;;;;;;6.9;5.8;;;;;;;30.62;43.82422;933.2838;;;;
2022/07/25 19:03:26;;;;;;;9.1;6.5;;;;;;;30.6;43.97852;933.2386;;;;
2022/07/25 19:05:56;;;;;;;8.3;6.3;;;;;;;30.52;44.7832;933.343;;;;
2022/07/25 19:08:25;;;;;;;8.1;6.2;;;;;;;30.46;44.95508;933.3284;;;;
2022/07/25 19:10:50;;;;;;;6.6;5.9;;;;;;;30.41;45.03516;933.3387;;;;
2022/07/25 19:13:18;;;;;;;7.3;5.8;;;;;;;30.27;44.1377;933.4529;;;;
2022/07/25 19:15:43;;;;;;;7.7;5.8;;;;;;;30.17;45.18945;933.5283;;;;
2022/07/25 19:18:10;;;;;;;7.7;6.3;;;;;;;30.07;44.63086;933.6827;;;;
2022/07/25 19:20:42;;;;;;;7.5;5.5;;;;;;;29.92;44.50879;933.997;;;;
2022/07/25 19:23:05;;;;;;;7.6;5.9;;;;;;;29.6;45.2041;934.252;;;;
2022/07/25 19:25:30;;;;;;;6.7;5.9;;;;;;;29.42;47.11621;934.4799;;;;
2022/07/25 19:27:59;;;;;;;8.1;6.5;;;;;;;29.06;49.97266;934.6928;;;;
2022/07/25 19:30:24;;;;;;;9.3;6.1;;;;;;;28.63;51.78027;934.7797;;;;
2022/07/25 19:32:55;;;;;;;8;5.4;;;;;;;28.53;50.72266;934.991;;;;